SWA6177 KDEN-KMCO
Flight info
| Callsign | SWA6177 |
|---|---|
| Flight time | 2h 49m |
| Altitude | 35000 |
| Route | EPKEE7 DUUZE ICT MUDHO/N0454F370 Q128 JILLS DEEDA GRNCH5 |
| Aircraft | B738/M-SDE2E3FGHIRWXY/LB1 |
Departure
| Time | 2026-05-07 18:09 |
|---|---|
| Airport | Denver International Airport (KDEN) |
Arrival
| Time | 2026-05-07 20:58 |
|---|---|
| Airport | Orlando International Airport (KMCO) |
| Time | Latitude | Longitude | Altitude | Speed | Heading |
|---|---|---|---|---|---|
| 2026-05-07 17:21 | 39.86255 | -104.67153 | 5362 ft | 0 kts | 360° |
| 2026-05-07 17:59 | 39.86248 | -104.67153 | 5361 ft | 4 kts | 0° |
| 2026-05-07 17:59 | 39.86221 | -104.67153 | 5364 ft | 4 kts | 1° |
| 2026-05-07 18:00 | 39.86194 | -104.67154 | 5362 ft | 4 kts | 3° |
| 2026-05-07 18:00 | 39.86170 | -104.67156 | 5364 ft | 1 kts | 2° |
| 2026-05-07 18:03 | 39.86170 | -104.67179 | 5370 ft | 5 kts | 221° |
| 2026-05-07 18:03 | 39.86108 | -104.67228 | 5363 ft | 15 kts | 210° |
| 2026-05-07 18:03 | 39.86066 | -104.67368 | 5365 ft | 21 kts | 272° |
| 2026-05-07 18:03 | 39.86068 | -104.67587 | 5365 ft | 26 kts | 270° |
| 2026-05-07 18:04 | 39.86069 | -104.67816 | 5365 ft | 24 kts | 270° |
| 2026-05-07 18:04 | 39.86071 | -104.68031 | 5365 ft | 23 kts | 270° |
| 2026-05-07 18:04 | 39.86034 | -104.68226 | 5364 ft | 22 kts | 262° |
| 2026-05-07 18:04 | 39.86033 | -104.68425 | 5363 ft | 22 kts | 270° |
| 2026-05-07 18:05 | 39.86138 | -104.68507 | 5363 ft | 21 kts | 2° |
| 2026-05-07 18:05 | 39.86282 | -104.68505 | 5364 ft | 20 kts | 0° |
| 2026-05-07 18:05 | 39.86414 | -104.68522 | 5364 ft | 16 kts | 320° |
| 2026-05-07 18:05 | 39.86429 | -104.68570 | 5362 ft | 0 kts | 276° |
| 2026-05-07 18:07 | 39.86429 | -104.68591 | 5365 ft | 6 kts | 272° |
| 2026-05-07 18:07 | 39.86436 | -104.68679 | 5368 ft | 12 kts | 293° |
| 2026-05-07 18:08 | 39.86539 | -104.68714 | 5364 ft | 31 kts | 360° |
| 2026-05-07 18:08 | 39.87006 | -104.68711 | 5364 ft | 103 kts | 0° |
| 2026-05-07 18:08 | 39.87939 | -104.68701 | 5366 ft | 163 kts | 358° |
| 2026-05-07 18:08 | 39.89218 | -104.68664 | 5561 ft | 200 kts | 6° |
| 2026-05-07 18:09 | 39.90638 | -104.68413 | 6275 ft | 214 kts | 13° |
| 2026-05-07 18:09 | 39.92104 | -104.67608 | 6591 ft | 246 kts | 30° |
| 2026-05-07 18:09 | 39.93473 | -104.66049 | 6814 ft | 279 kts | 48° |
| 2026-05-07 18:09 | 39.94467 | -104.63732 | 7127 ft | 304 kts | 72° |
| 2026-05-07 18:10 | 39.94651 | -104.60996 | 7998 ft | 302 kts | 98° |
| 2026-05-07 18:10 | 39.94048 | -104.58398 | 8960 ft | 301 kts | 117° |
| 2026-05-07 18:10 | 39.93045 | -104.55964 | 9683 ft | 309 kts | 120° |
| 2026-05-07 18:10 | 39.91958 | -104.53526 | 10374 ft | 317 kts | 121° |
| 2026-05-07 18:11 | 39.90793 | -104.50956 | 10591 ft | 342 kts | 121° |
| 2026-05-07 18:11 | 39.89975 | -104.49145 | 10722 ft | 358 kts | 121° |
| 2026-05-07 18:11 | 39.88250 | -104.45299 | 11148 ft | 381 kts | 121° |
| 2026-05-07 18:11 | 39.86911 | -104.42285 | 11791 ft | 386 kts | 120° |
| 2026-05-07 18:12 | 39.85568 | -104.39245 | 12531 ft | 389 kts | 120° |
| 2026-05-07 18:12 | 39.84216 | -104.36178 | 13263 ft | 393 kts | 120° |
| 2026-05-07 18:12 | 39.82853 | -104.33081 | 13995 ft | 396 kts | 120° |
| 2026-05-07 18:12 | 39.81476 | -104.29954 | 14631 ft | 400 kts | 120° |
| 2026-05-07 18:13 | 39.80087 | -104.26801 | 15239 ft | 404 kts | 120° |
| 2026-05-07 18:13 | 39.78683 | -104.23617 | 15857 ft | 408 kts | 120° |
| 2026-05-07 18:13 | 39.77264 | -104.20403 | 16473 ft | 412 kts | 120° |
| 2026-05-07 18:13 | 39.75828 | -104.17151 | 17038 ft | 417 kts | 120° |
| 2026-05-07 18:14 | 39.74371 | -104.13859 | 17612 ft | 422 kts | 120° |
| 2026-05-07 18:14 | 39.72901 | -104.10540 | 18190 ft | 426 kts | 120° |
| 2026-05-07 18:14 | 39.71413 | -104.07184 | 18692 ft | 431 kts | 120° |
| 2026-05-07 18:14 | 39.69912 | -104.03804 | 19194 ft | 435 kts | 120° |
| 2026-05-07 18:15 | 39.68392 | -104.00383 | 19704 ft | 439 kts | 120° |
| 2026-05-07 18:15 | 39.66858 | -103.96933 | 20189 ft | 443 kts | 120° |
| 2026-05-07 18:15 | 39.65308 | -103.93450 | 20651 ft | 447 kts | 120° |
| 2026-05-07 18:15 | 39.63761 | -103.89981 | 21120 ft | 452 kts | 120° |
| 2026-05-07 18:16 | 39.62182 | -103.86440 | 21561 ft | 456 kts | 121° |
| 2026-05-07 18:16 | 39.60581 | -103.82857 | 22009 ft | 460 kts | 121° |
| 2026-05-07 18:16 | 39.59026 | -103.79207 | 22467 ft | 464 kts | 116° |
| 2026-05-07 18:16 | 39.57806 | -103.75318 | 22925 ft | 467 kts | 110° |
| 2026-05-07 18:17 | 39.56705 | -103.71337 | 23363 ft | 471 kts | 109° |
| 2026-05-07 18:17 | 39.55619 | -103.67309 | 23736 ft | 475 kts | 109° |
| 2026-05-07 18:17 | 39.54519 | -103.63251 | 24104 ft | 478 kts | 109° |
| 2026-05-07 18:17 | 39.53398 | -103.59180 | 24471 ft | 481 kts | 109° |
| 2026-05-07 18:18 | 39.52255 | -103.55094 | 24852 ft | 484 kts | 110° |
| 2026-05-07 18:18 | 39.51096 | -103.50992 | 25195 ft | 487 kts | 110° |
| 2026-05-07 18:18 | 39.49923 | -103.46870 | 25578 ft | 489 kts | 110° |
| 2026-05-07 18:18 | 39.48741 | -103.42730 | 25953 ft | 491 kts | 110° |
| 2026-05-07 18:19 | 39.47550 | -103.38568 | 26240 ft | 494 kts | 110° |
| 2026-05-07 18:19 | 39.46352 | -103.34385 | 26531 ft | 498 kts | 110° |
| 2026-05-07 18:19 | 39.45146 | -103.30176 | 26835 ft | 501 kts | 110° |
| 2026-05-07 18:19 | 39.43930 | -103.25937 | 27152 ft | 503 kts | 110° |
| 2026-05-07 18:20 | 39.42725 | -103.21740 | 27466 ft | 506 kts | 110° |
| 2026-05-07 18:20 | 39.41494 | -103.17463 | 27756 ft | 508 kts | 110° |
| 2026-05-07 18:20 | 39.40258 | -103.13172 | 28072 ft | 511 kts | 110° |
| 2026-05-07 18:20 | 39.39012 | -103.08855 | 28341 ft | 514 kts | 110° |
| 2026-05-07 18:21 | 39.37758 | -103.04519 | 28614 ft | 517 kts | 110° |
| 2026-05-07 18:21 | 39.36497 | -103.00159 | 28898 ft | 519 kts | 110° |
| 2026-05-07 18:21 | 39.35224 | -102.95780 | 29202 ft | 521 kts | 111° |
| 2026-05-07 18:21 | 39.33798 | -102.91492 | 29581 ft | 520 kts | 116° |
| 2026-05-07 18:22 | 39.32187 | -102.87311 | 29994 ft | 519 kts | 118° |
| 2026-05-07 18:22 | 39.31624 | -102.85908 | 30117 ft | 519 kts | 118° |
| 2026-05-07 18:22 | 39.28828 | -102.79061 | 30631 ft | 519 kts | 118° |
| 2026-05-07 18:22 | 39.27156 | -102.74933 | 30997 ft | 518 kts | 118° |
| 2026-05-07 18:23 | 39.25509 | -102.70811 | 31362 ft | 516 kts | 118° |
| 2026-05-07 18:23 | 39.23877 | -102.66685 | 31697 ft | 516 kts | 118° |
| 2026-05-07 18:23 | 39.22253 | -102.62558 | 32027 ft | 516 kts | 118° |
| 2026-05-07 18:23 | 39.20631 | -102.58435 | 32364 ft | 515 kts | 118° |
| 2026-05-07 18:24 | 39.19007 | -102.54317 | 32707 ft | 514 kts | 118° |
| 2026-05-07 18:24 | 39.17407 | -102.50270 | 33051 ft | 513 kts | 118° |
| 2026-05-07 18:24 | 39.15766 | -102.46127 | 33376 ft | 512 kts | 118° |
| 2026-05-07 18:24 | 39.14146 | -102.42047 | 33678 ft | 512 kts | 118° |
| 2026-05-07 18:25 | 39.12521 | -102.37967 | 34017 ft | 510 kts | 118° |
| 2026-05-07 18:25 | 39.10920 | -102.33970 | 34351 ft | 508 kts | 119° |
| 2026-05-07 18:25 | 39.09301 | -102.29943 | 34684 ft | 505 kts | 119° |
| 2026-05-07 18:25 | 39.07681 | -102.25918 | 34948 ft | 504 kts | 119° |
| 2026-05-07 18:26 | 39.06062 | -102.21901 | 35013 ft | 508 kts | 119° |
| 2026-05-07 18:26 | 39.03351 | -102.15179 | 34970 ft | 510 kts | 119° |
| 2026-05-07 18:27 | 39.00091 | -102.07104 | 34949 ft | 505 kts | 119° |
| 2026-05-07 18:27 | 38.96859 | -101.99118 | 34960 ft | 504 kts | 120° |
| 2026-05-07 18:28 | 38.93621 | -101.91144 | 34956 ft | 503 kts | 120° |
| 2026-05-07 18:28 | 38.90382 | -101.83185 | 34954 ft | 503 kts | 120° |
| 2026-05-07 18:29 | 38.87137 | -101.75230 | 34965 ft | 503 kts | 120° |
| 2026-05-07 18:29 | 38.83884 | -101.67275 | 34979 ft | 503 kts | 120° |
| 2026-05-07 18:30 | 38.80634 | -101.59306 | 34962 ft | 505 kts | 120° |
| 2026-05-07 18:30 | 38.77382 | -101.51308 | 34926 ft | 505 kts | 120° |
| 2026-05-07 18:31 | 38.74173 | -101.43362 | 34958 ft | 505 kts | 120° |
| 2026-05-07 18:31 | 38.70956 | -101.35364 | 34964 ft | 505 kts | 120° |
| 2026-05-07 18:32 | 38.67744 | -101.27367 | 34977 ft | 506 kts | 120° |
| 2026-05-07 18:32 | 38.64539 | -101.19351 | 34984 ft | 506 kts | 120° |
| 2026-05-07 18:33 | 38.61341 | -101.11337 | 34990 ft | 506 kts | 120° |
| 2026-05-07 18:33 | 38.58146 | -101.03318 | 34993 ft | 505 kts | 120° |
| 2026-05-07 18:34 | 38.54973 | -100.95315 | 35004 ft | 504 kts | 120° |
| 2026-05-07 18:34 | 38.51832 | -100.87370 | 35019 ft | 503 kts | 120° |
| 2026-05-07 18:35 | 38.48679 | -100.79391 | 35018 ft | 503 kts | 120° |
| 2026-05-07 18:35 | 38.45529 | -100.71416 | 35018 ft | 502 kts | 120° |
| 2026-05-07 18:36 | 38.42391 | -100.63471 | 34994 ft | 501 kts | 120° |
| 2026-05-07 18:36 | 38.39254 | -100.55528 | 34985 ft | 501 kts | 120° |
| 2026-05-07 18:37 | 38.36149 | -100.47635 | 34989 ft | 501 kts | 120° |
| 2026-05-07 18:37 | 38.33034 | -100.39698 | 34982 ft | 501 kts | 120° |
| 2026-05-07 18:38 | 38.30548 | -100.31376 | 34983 ft | 506 kts | 105° |
| 2026-05-07 18:38 | 38.28955 | -100.22642 | 34978 ft | 507 kts | 104° |
| 2026-05-07 18:39 | 38.27361 | -100.13877 | 34988 ft | 508 kts | 105° |
| 2026-05-07 18:39 | 38.25698 | -100.05168 | 34977 ft | 509 kts | 106° |
| 2026-05-07 18:40 | 38.23975 | -99.96384 | 34976 ft | 510 kts | 106° |
| 2026-05-07 18:40 | 38.22254 | -99.87673 | 34966 ft | 511 kts | 106° |
| 2026-05-07 18:41 | 38.20516 | -99.78899 | 34984 ft | 512 kts | 106° |
| 2026-05-07 18:41 | 38.18771 | -99.70113 | 34986 ft | 512 kts | 106° |
| 2026-05-07 18:42 | 38.17017 | -99.61312 | 34992 ft | 513 kts | 106° |
| 2026-05-07 18:42 | 38.15259 | -99.52529 | 34993 ft | 513 kts | 107° |
| 2026-05-07 18:43 | 38.13492 | -99.43741 | 34998 ft | 513 kts | 107° |
| 2026-05-07 18:43 | 38.11719 | -99.34956 | 35004 ft | 514 kts | 107° |
| 2026-05-07 18:44 | 38.09937 | -99.26167 | 34997 ft | 514 kts | 107° |
| 2026-05-07 18:44 | 38.08150 | -99.17389 | 35011 ft | 513 kts | 107° |
| 2026-05-07 18:45 | 38.06367 | -99.08666 | 35015 ft | 513 kts | 107° |
| 2026-05-07 18:45 | 38.04567 | -98.99896 | 35005 ft | 514 kts | 107° |
| 2026-05-07 18:46 | 38.02755 | -98.91109 | 35007 ft | 514 kts | 107° |
| 2026-05-07 18:46 | 38.00940 | -98.82336 | 35008 ft | 514 kts | 107° |
| 2026-05-07 18:47 | 37.99117 | -98.73562 | 35007 ft | 515 kts | 107° |
| 2026-05-07 18:47 | 37.97288 | -98.64796 | 35008 ft | 515 kts | 107° |
| 2026-05-07 18:48 | 37.95445 | -98.55999 | 35016 ft | 515 kts | 107° |
| 2026-05-07 18:48 | 37.93611 | -98.47280 | 35016 ft | 515 kts | 108° |
| 2026-05-07 18:49 | 37.91757 | -98.38502 | 35009 ft | 516 kts | 108° |
| 2026-05-07 18:49 | 37.89892 | -98.29707 | 35019 ft | 516 kts | 108° |
| 2026-05-07 18:50 | 37.88023 | -98.20927 | 35009 ft | 516 kts | 108° |
| 2026-05-07 18:50 | 37.86144 | -98.12134 | 35012 ft | 517 kts | 108° |
| 2026-05-07 18:51 | 37.84270 | -98.03400 | 35010 ft | 518 kts | 108° |
| 2026-05-07 18:51 | 37.82360 | -97.94535 | 35034 ft | 519 kts | 108° |
| 2026-05-07 18:52 | 37.80469 | -97.85792 | 35030 ft | 520 kts | 108° |
| 2026-05-07 18:52 | 37.78553 | -97.76964 | 35027 ft | 521 kts | 108° |
| 2026-05-07 18:53 | 37.76627 | -97.68125 | 35024 ft | 522 kts | 108° |
| 2026-05-07 18:53 | 37.74692 | -97.59292 | 35043 ft | 521 kts | 109° |
| 2026-05-07 18:54 | 37.72180 | -97.50735 | 35050 ft | 518 kts | 117° |
| 2026-05-07 18:54 | 37.69319 | -97.42434 | 35053 ft | 517 kts | 118° |
| 2026-05-07 18:55 | 37.66437 | -97.34091 | 35044 ft | 519 kts | 118° |
| 2026-05-07 18:55 | 37.63598 | -97.25698 | 35056 ft | 520 kts | 117° |
| 2026-05-07 18:56 | 37.60778 | -97.17279 | 35057 ft | 522 kts | 117° |
| 2026-05-07 18:56 | 37.57949 | -97.08836 | 35055 ft | 523 kts | 117° |
| 2026-05-07 18:57 | 37.55105 | -97.00388 | 35051 ft | 523 kts | 117° |
| 2026-05-07 18:57 | 37.52269 | -96.91995 | 35073 ft | 523 kts | 118° |
| 2026-05-07 18:58 | 37.49411 | -96.83564 | 35073 ft | 523 kts | 118° |
| 2026-05-07 18:58 | 37.46546 | -96.75137 | 35073 ft | 523 kts | 118° |
| 2026-05-07 18:59 | 37.43674 | -96.66715 | 35084 ft | 524 kts | 118° |
| 2026-05-07 18:59 | 37.40793 | -96.58288 | 35085 ft | 524 kts | 118° |
| 2026-05-07 19:00 | 37.37905 | -96.49864 | 35078 ft | 525 kts | 119° |
| 2026-05-07 19:00 | 37.35008 | -96.41443 | 35095 ft | 525 kts | 119° |
| 2026-05-07 19:01 | 37.32102 | -96.33011 | 35088 ft | 526 kts | 119° |
| 2026-05-07 19:01 | 37.29208 | -96.24640 | 35072 ft | 525 kts | 119° |
| 2026-05-07 19:02 | 37.26294 | -96.16235 | 35083 ft | 525 kts | 119° |
| 2026-05-07 19:02 | 37.23373 | -96.07835 | 35104 ft | 525 kts | 120° |
| 2026-05-07 19:03 | 37.20438 | -95.99421 | 35088 ft | 526 kts | 120° |
| 2026-05-07 19:03 | 37.17497 | -95.91011 | 35084 ft | 526 kts | 120° |
| 2026-05-07 19:04 | 37.14548 | -95.82602 | 35080 ft | 527 kts | 120° |
| 2026-05-07 19:04 | 37.11597 | -95.74208 | 35085 ft | 527 kts | 120° |
| 2026-05-07 19:05 | 37.08655 | -95.65863 | 35045 ft | 527 kts | 121° |
| 2026-05-07 19:05 | 37.05686 | -95.57469 | 35071 ft | 528 kts | 121° |
| 2026-05-07 19:06 | 37.02702 | -95.49056 | 35082 ft | 529 kts | 121° |
| 2026-05-07 19:06 | 36.98188 | -95.36373 | 35092 ft | 532 kts | 121° |
| 2026-05-07 19:07 | 36.95163 | -95.27900 | 35099 ft | 534 kts | 121° |
| 2026-05-07 19:07 | 36.92124 | -95.19410 | 35103 ft | 536 kts | 121° |
| 2026-05-07 19:08 | 36.89088 | -95.10952 | 35098 ft | 537 kts | 121° |
| 2026-05-07 19:08 | 36.86022 | -95.02435 | 35080 ft | 537 kts | 122° |
| 2026-05-07 19:09 | 36.82948 | -94.93924 | 35080 ft | 538 kts | 122° |
| 2026-05-07 19:09 | 36.79861 | -94.85401 | 35102 ft | 540 kts | 122° |
| 2026-05-07 19:10 | 36.76758 | -94.76855 | 35112 ft | 541 kts | 122° |
| 2026-05-07 19:10 | 36.73642 | -94.68296 | 35122 ft | 543 kts | 122° |
| 2026-05-07 19:11 | 36.70525 | -94.59759 | 35117 ft | 545 kts | 122° |
| 2026-05-07 19:11 | 36.67378 | -94.51162 | 35111 ft | 546 kts | 122° |
| 2026-05-07 19:12 | 36.64223 | -94.42564 | 35099 ft | 545 kts | 123° |
| 2026-05-07 19:12 | 36.61059 | -94.33967 | 35115 ft | 546 kts | 123° |
| 2026-05-07 19:13 | 36.57886 | -94.25372 | 35119 ft | 546 kts | 123° |
| 2026-05-07 19:13 | 36.54705 | -94.16780 | 35124 ft | 547 kts | 123° |
| 2026-05-07 19:14 | 36.51530 | -94.08229 | 35124 ft | 547 kts | 123° |
| 2026-05-07 19:14 | 36.48852 | -94.01031 | 35116 ft | 547 kts | 123° |
| 2026-05-07 19:15 | 36.45674 | -93.92511 | 35125 ft | 547 kts | 123° |
| 2026-05-07 19:15 | 36.42468 | -93.83940 | 35069 ft | 546 kts | 124° |
| 2026-05-07 19:16 | 36.39269 | -93.75408 | 35106 ft | 545 kts | 124° |
| 2026-05-07 19:16 | 36.36062 | -93.66882 | 35112 ft | 544 kts | 124° |
| 2026-05-07 19:17 | 36.32851 | -93.58369 | 35106 ft | 544 kts | 124° |
| 2026-05-07 19:17 | 36.29635 | -93.49867 | 35105 ft | 544 kts | 123° |
| 2026-05-07 19:18 | 36.26435 | -93.41422 | 35113 ft | 544 kts | 124° |
| 2026-05-07 19:18 | 36.23208 | -93.32939 | 35108 ft | 544 kts | 124° |
| 2026-05-07 19:19 | 36.19973 | -93.24460 | 35048 ft | 545 kts | 124° |
| 2026-05-07 19:19 | 36.16737 | -93.15991 | 35094 ft | 543 kts | 124° |
| 2026-05-07 19:20 | 36.13494 | -93.07530 | 35101 ft | 543 kts | 124° |
| 2026-05-07 19:20 | 36.10247 | -92.99083 | 35101 ft | 544 kts | 125° |
| 2026-05-07 19:21 | 36.06990 | -92.90631 | 35102 ft | 544 kts | 125° |
| 2026-05-07 19:21 | 36.03728 | -92.82187 | 35104 ft | 545 kts | 125° |
| 2026-05-07 19:22 | 36.00456 | -92.73741 | 35103 ft | 545 kts | 125° |
| 2026-05-07 19:22 | 35.97176 | -92.65296 | 35108 ft | 546 kts | 125° |
| 2026-05-07 19:23 | 35.93907 | -92.56904 | 35101 ft | 547 kts | 125° |
| 2026-05-07 19:23 | 35.90608 | -92.48450 | 35104 ft | 547 kts | 125° |
| 2026-05-07 19:24 | 35.87297 | -92.39994 | 35103 ft | 547 kts | 125° |
| 2026-05-07 19:24 | 35.83982 | -92.31550 | 35094 ft | 548 kts | 125° |
| 2026-05-07 19:25 | 35.80659 | -92.23101 | 35115 ft | 548 kts | 126° |
| 2026-05-07 19:25 | 35.77329 | -92.14659 | 35106 ft | 548 kts | 125° |
| 2026-05-07 19:26 | 35.73992 | -92.06216 | 35124 ft | 548 kts | 125° |
| 2026-05-07 19:26 | 35.70658 | -91.97827 | 35117 ft | 547 kts | 126° |
| 2026-05-07 19:27 | 35.67307 | -91.89410 | 35098 ft | 548 kts | 126° |
| 2026-05-07 19:27 | 35.63955 | -91.80990 | 35114 ft | 548 kts | 126° |
| 2026-05-07 19:28 | 35.60590 | -91.72571 | 35122 ft | 548 kts | 126° |
| 2026-05-07 19:28 | 35.57221 | -91.64166 | 35124 ft | 548 kts | 126° |
| 2026-05-07 19:29 | 35.53842 | -91.55754 | 35122 ft | 549 kts | 126° |
| 2026-05-07 19:29 | 35.50477 | -91.47396 | 35144 ft | 550 kts | 126° |
| 2026-05-07 19:30 | 35.47078 | -91.38974 | 35104 ft | 549 kts | 126° |
| 2026-05-07 19:30 | 35.43689 | -91.30597 | 35137 ft | 549 kts | 126° |
| 2026-05-07 19:31 | 35.40284 | -91.22210 | 35148 ft | 548 kts | 126° |
| 2026-05-07 19:31 | 35.36877 | -91.13839 | 35162 ft | 548 kts | 126° |
| 2026-05-07 19:32 | 35.33464 | -91.05474 | 35132 ft | 549 kts | 126° |
| 2026-05-07 19:32 | 35.30044 | -90.97113 | 35131 ft | 549 kts | 126° |
| 2026-05-07 19:33 | 35.26639 | -90.88808 | 35126 ft | 549 kts | 127° |
| 2026-05-07 19:33 | 35.23215 | -90.80476 | 35071 ft | 548 kts | 127° |
| 2026-05-07 19:34 | 35.19788 | -90.72157 | 35108 ft | 547 kts | 127° |
| 2026-05-07 19:34 | 35.16364 | -90.63869 | 35114 ft | 546 kts | 127° |
| 2026-05-07 19:35 | 35.12938 | -90.55595 | 35100 ft | 545 kts | 127° |
| 2026-05-07 19:35 | 35.09505 | -90.47327 | 35096 ft | 545 kts | 127° |
| 2026-05-07 19:36 | 35.06074 | -90.39082 | 35092 ft | 544 kts | 127° |
| 2026-05-07 19:36 | 35.02637 | -90.30844 | 35092 ft | 544 kts | 127° |
| 2026-05-07 19:37 | 34.99196 | -90.22615 | 35067 ft | 545 kts | 127° |
| 2026-05-07 19:37 | 34.95753 | -90.14397 | 35087 ft | 543 kts | 127° |
| 2026-05-07 19:38 | 34.91800 | -90.06748 | 35097 ft | 522 kts | 141° |
| 2026-05-07 19:38 | 34.87190 | -89.99925 | 35093 ft | 521 kts | 142° |
| 2026-05-07 19:39 | 34.82565 | -89.93157 | 35087 ft | 524 kts | 142° |
| 2026-05-07 19:39 | 34.77931 | -89.86277 | 35090 ft | 526 kts | 141° |
| 2026-05-07 19:40 | 34.73311 | -89.79362 | 35034 ft | 528 kts | 140° |
| 2026-05-07 19:40 | 34.68678 | -89.72424 | 35088 ft | 528 kts | 141° |
| 2026-05-07 19:41 | 34.64068 | -89.65543 | 35083 ft | 529 kts | 141° |
| 2026-05-07 19:41 | 34.59413 | -89.58615 | 35084 ft | 530 kts | 141° |
| 2026-05-07 19:42 | 34.54741 | -89.51677 | 35079 ft | 531 kts | 141° |
| 2026-05-07 19:42 | 34.50057 | -89.44733 | 35080 ft | 532 kts | 141° |
| 2026-05-07 19:43 | 34.45365 | -89.37788 | 35048 ft | 531 kts | 141° |
| 2026-05-07 19:43 | 34.40684 | -89.30873 | 35079 ft | 530 kts | 141° |
| 2026-05-07 19:44 | 34.36013 | -89.23988 | 35086 ft | 528 kts | 141° |
| 2026-05-07 19:44 | 34.31380 | -89.17175 | 35067 ft | 527 kts | 141° |
| 2026-05-07 19:45 | 34.26718 | -89.10331 | 35067 ft | 526 kts | 141° |
| 2026-05-07 19:45 | 34.22060 | -89.03507 | 35069 ft | 526 kts | 141° |
| 2026-05-07 19:46 | 34.17408 | -88.96704 | 35062 ft | 524 kts | 141° |
| 2026-05-07 19:46 | 34.12747 | -88.89902 | 35069 ft | 525 kts | 141° |
| 2026-05-07 19:47 | 34.08090 | -88.83120 | 35062 ft | 526 kts | 141° |
| 2026-05-07 19:47 | 34.03408 | -88.76314 | 35080 ft | 527 kts | 141° |
| 2026-05-07 19:48 | 33.98742 | -88.69544 | 35062 ft | 529 kts | 141° |
| 2026-05-07 19:48 | 33.94019 | -88.62703 | 35019 ft | 531 kts | 141° |
| 2026-05-07 19:49 | 33.89287 | -88.55859 | 35025 ft | 532 kts | 141° |
| 2026-05-07 19:49 | 33.84550 | -88.49020 | 35034 ft | 532 kts | 141° |
| 2026-05-07 19:50 | 33.79806 | -88.42185 | 35020 ft | 531 kts | 141° |
| 2026-05-07 19:50 | 33.75104 | -88.35425 | 35013 ft | 530 kts | 141° |
| 2026-05-07 19:51 | 33.70374 | -88.28637 | 35018 ft | 529 kts | 141° |
| 2026-05-07 19:51 | 33.65657 | -88.21879 | 34991 ft | 526 kts | 141° |
| 2026-05-07 19:52 | 33.60970 | -88.15175 | 34998 ft | 522 kts | 141° |
| 2026-05-07 19:52 | 33.56307 | -88.08520 | 34987 ft | 519 kts | 141° |
| 2026-05-07 19:53 | 33.51675 | -88.01923 | 34998 ft | 515 kts | 141° |
| 2026-05-07 19:53 | 33.47074 | -87.95383 | 35003 ft | 512 kts | 141° |
| 2026-05-07 19:54 | 33.42485 | -87.88873 | 35003 ft | 510 kts | 141° |
| 2026-05-07 19:54 | 33.37909 | -87.82392 | 35005 ft | 510 kts | 141° |
| 2026-05-07 19:55 | 33.33354 | -87.75945 | 35005 ft | 510 kts | 141° |
| 2026-05-07 19:55 | 33.28919 | -87.69234 | 34996 ft | 518 kts | 137° |
| 2026-05-07 19:56 | 33.24650 | -87.62259 | 35002 ft | 521 kts | 136° |
| 2026-05-07 19:56 | 33.20387 | -87.55257 | 35004 ft | 522 kts | 136° |
| 2026-05-07 19:57 | 33.16075 | -87.48270 | 35003 ft | 523 kts | 137° |
| 2026-05-07 19:57 | 33.11732 | -87.41293 | 34976 ft | 523 kts | 136° |
| 2026-05-07 19:58 | 33.07410 | -87.34371 | 34988 ft | 523 kts | 136° |
| 2026-05-07 19:58 | 33.03040 | -87.27381 | 34989 ft | 523 kts | 136° |
| 2026-05-07 19:59 | 32.98714 | -87.20474 | 34992 ft | 522 kts | 136° |
| 2026-05-07 19:59 | 32.94371 | -87.13550 | 34993 ft | 522 kts | 136° |
| 2026-05-07 20:00 | 32.90026 | -87.06637 | 34995 ft | 521 kts | 136° |
| 2026-05-07 20:00 | 32.85677 | -86.99731 | 34997 ft | 521 kts | 137° |
| 2026-05-07 20:01 | 32.81337 | -86.92850 | 34984 ft | 519 kts | 136° |
| 2026-05-07 20:01 | 32.77000 | -86.85988 | 34991 ft | 518 kts | 136° |
| 2026-05-07 20:02 | 32.72689 | -86.79180 | 34994 ft | 518 kts | 136° |
| 2026-05-07 20:02 | 32.69059 | -86.73458 | 34987 ft | 518 kts | 136° |
| 2026-05-07 20:03 | 32.64719 | -86.66626 | 34982 ft | 518 kts | 136° |
| 2026-05-07 20:03 | 32.60400 | -86.59841 | 34990 ft | 518 kts | 136° |
| 2026-05-07 20:04 | 32.56055 | -86.53026 | 34947 ft | 517 kts | 136° |
| 2026-05-07 20:04 | 32.51717 | -86.46232 | 34970 ft | 516 kts | 136° |
| 2026-05-07 20:05 | 32.47376 | -86.39449 | 34973 ft | 516 kts | 137° |
| 2026-05-07 20:05 | 32.43068 | -86.32730 | 34972 ft | 515 kts | 137° |
| 2026-05-07 20:06 | 32.38733 | -86.25979 | 34972 ft | 515 kts | 137° |
| 2026-05-07 20:06 | 32.34394 | -86.19237 | 34984 ft | 514 kts | 137° |
| 2026-05-07 20:07 | 32.30061 | -86.12512 | 34980 ft | 514 kts | 137° |
| 2026-05-07 20:07 | 32.25733 | -86.05808 | 34976 ft | 512 kts | 136° |
| 2026-05-07 20:08 | 32.21412 | -85.99127 | 34973 ft | 511 kts | 136° |
| 2026-05-07 20:08 | 32.17099 | -85.92472 | 34980 ft | 510 kts | 137° |
| 2026-05-07 20:09 | 32.12818 | -85.85877 | 34978 ft | 509 kts | 137° |
| 2026-05-07 20:10 | 32.06354 | -85.75940 | 34981 ft | 509 kts | 137° |
| 2026-05-07 20:10 | 32.02043 | -85.69329 | 34977 ft | 509 kts | 137° |
| 2026-05-07 20:11 | 31.97729 | -85.62722 | 34960 ft | 508 kts | 136° |
| 2026-05-07 20:11 | 31.93417 | -85.56130 | 34954 ft | 508 kts | 136° |
| 2026-05-07 20:12 | 31.89104 | -85.49548 | 34953 ft | 507 kts | 136° |
| 2026-05-07 20:12 | 31.84788 | -85.42973 | 34955 ft | 507 kts | 136° |
| 2026-05-07 20:13 | 31.80499 | -85.36451 | 34955 ft | 507 kts | 136° |
| 2026-05-07 20:13 | 31.76183 | -85.29898 | 34962 ft | 506 kts | 136° |
| 2026-05-07 20:14 | 31.71873 | -85.23363 | 34968 ft | 506 kts | 136° |
| 2026-05-07 20:14 | 31.67563 | -85.16839 | 34965 ft | 504 kts | 135° |
| 2026-05-07 20:15 | 31.63260 | -85.10340 | 34980 ft | 504 kts | 135° |
| 2026-05-07 20:15 | 31.58956 | -85.03848 | 34986 ft | 504 kts | 135° |
| 2026-05-07 20:16 | 31.55454 | -84.96639 | 35018 ft | 520 kts | 114° |
| 2026-05-07 20:16 | 31.53112 | -84.88577 | 34993 ft | 523 kts | 113° |
| 2026-05-07 20:17 | 31.50776 | -84.80565 | 34991 ft | 523 kts | 114° |
| 2026-05-07 20:17 | 31.48342 | -84.72529 | 34990 ft | 523 kts | 115° |
| 2026-05-07 20:18 | 31.45871 | -84.64511 | 34990 ft | 523 kts | 115° |
| 2026-05-07 20:18 | 31.43391 | -84.56487 | 34992 ft | 524 kts | 115° |
| 2026-05-07 20:19 | 31.40912 | -84.48467 | 34993 ft | 524 kts | 115° |
| 2026-05-07 20:19 | 31.38431 | -84.40452 | 34990 ft | 523 kts | 114° |
| 2026-05-07 20:20 | 31.35943 | -84.32435 | 34989 ft | 524 kts | 115° |
| 2026-05-07 20:20 | 31.33454 | -84.24437 | 34994 ft | 523 kts | 114° |
| 2026-05-07 20:21 | 31.30959 | -84.16439 | 34990 ft | 523 kts | 114° |
| 2026-05-07 20:21 | 31.28465 | -84.08464 | 34993 ft | 522 kts | 114° |
| 2026-05-07 20:22 | 31.25958 | -84.00489 | 34993 ft | 522 kts | 114° |
| 2026-05-07 20:22 | 31.23462 | -83.92572 | 34998 ft | 522 kts | 114° |
| 2026-05-07 20:23 | 31.20951 | -83.84627 | 34995 ft | 521 kts | 114° |
| 2026-05-07 20:23 | 31.18440 | -83.76695 | 34991 ft | 520 kts | 114° |
| 2026-05-07 20:24 | 31.15929 | -83.68783 | 34993 ft | 519 kts | 114° |
| 2026-05-07 20:24 | 31.13418 | -83.60889 | 34990 ft | 518 kts | 114° |
| 2026-05-07 20:25 | 31.10904 | -83.53008 | 34990 ft | 517 kts | 114° |
| 2026-05-07 20:25 | 31.08391 | -83.45146 | 34986 ft | 517 kts | 114° |
| 2026-05-07 20:26 | 31.05871 | -83.37282 | 34970 ft | 517 kts | 113° |
| 2026-05-07 20:26 | 31.03368 | -83.29493 | 34979 ft | 516 kts | 114° |
| 2026-05-07 20:27 | 31.00844 | -83.21653 | 34985 ft | 516 kts | 114° |
| 2026-05-07 20:27 | 30.98314 | -83.13818 | 34969 ft | 517 kts | 113° |
| 2026-05-07 20:28 | 30.95776 | -83.05972 | 34985 ft | 517 kts | 114° |
| 2026-05-07 20:28 | 30.93231 | -82.98122 | 35007 ft | 518 kts | 114° |
| 2026-05-07 20:29 | 30.90676 | -82.90262 | 35004 ft | 519 kts | 114° |
| 2026-05-07 20:29 | 30.89132 | -82.86492 | 34980 ft | 512 kts | 129° |
| 2026-05-07 20:29 | 30.86866 | -82.83381 | 35034 ft | 499 kts | 145° |
| 2026-05-07 20:30 | 30.81421 | -82.78464 | 35029 ft | 495 kts | 150° |
| 2026-05-07 20:30 | 30.75905 | -82.73644 | 35022 ft | 497 kts | 149° |
| 2026-05-07 20:31 | 30.70436 | -82.68775 | 35040 ft | 500 kts | 149° |
| 2026-05-07 20:31 | 30.64913 | -82.63805 | 35052 ft | 503 kts | 149° |
| 2026-05-07 20:32 | 30.59361 | -82.58805 | 35053 ft | 507 kts | 149° |
| 2026-05-07 20:32 | 30.53769 | -82.53780 | 35071 ft | 509 kts | 149° |
| 2026-05-07 20:33 | 30.48163 | -82.48754 | 35060 ft | 510 kts | 149° |
| 2026-05-07 20:33 | 30.42544 | -82.43723 | 35057 ft | 510 kts | 149° |
| 2026-05-07 20:34 | 30.36929 | -82.38704 | 35073 ft | 509 kts | 149° |
| 2026-05-07 20:34 | 30.31359 | -82.33733 | 35061 ft | 508 kts | 149° |
| 2026-05-07 20:34 | 30.28537 | -82.31219 | 34529 ft | 513 kts | 149° |
| 2026-05-07 20:35 | 30.25714 | -82.28703 | 33921 ft | 512 kts | 149° |
| 2026-05-07 20:35 | 30.22890 | -82.26188 | 33204 ft | 512 kts | 149° |
| 2026-05-07 20:35 | 30.19933 | -82.23989 | 32467 ft | 498 kts | 164° |
| 2026-05-07 20:35 | 30.16703 | -82.22808 | 31750 ft | 478 kts | 179° |
| 2026-05-07 20:36 | 30.13444 | -82.22195 | 31241 ft | 471 kts | 180° |
| 2026-05-07 20:36 | 30.10215 | -82.21630 | 30754 ft | 467 kts | 180° |
| 2026-05-07 20:36 | 30.07018 | -82.21057 | 30273 ft | 463 kts | 180° |
| 2026-05-07 20:36 | 30.03847 | -82.20462 | 29715 ft | 460 kts | 180° |
| 2026-05-07 20:37 | 30.00705 | -82.19850 | 29172 ft | 455 kts | 179° |
| 2026-05-07 20:37 | 29.97595 | -82.19234 | 28642 ft | 451 kts | 179° |
| 2026-05-07 20:37 | 29.94524 | -82.18624 | 28142 ft | 446 kts | 179° |
| 2026-05-07 20:37 | 29.91482 | -82.18022 | 27641 ft | 441 kts | 179° |
| 2026-05-07 20:38 | 29.88521 | -82.17432 | 27291 ft | 434 kts | 179° |
| 2026-05-07 20:38 | 29.85557 | -82.16839 | 26808 ft | 430 kts | 179° |
| 2026-05-07 20:38 | 29.82619 | -82.16251 | 26340 ft | 426 kts | 179° |
| 2026-05-07 20:38 | 29.79705 | -82.15671 | 25865 ft | 423 kts | 179° |
| 2026-05-07 20:39 | 29.76812 | -82.15095 | 25394 ft | 420 kts | 179° |
| 2026-05-07 20:39 | 29.73930 | -82.14523 | 24898 ft | 419 kts | 179° |
| 2026-05-07 20:39 | 29.71062 | -82.13954 | 24415 ft | 417 kts | 178° |
| 2026-05-07 20:39 | 29.68206 | -82.13387 | 23932 ft | 416 kts | 178° |
| 2026-05-07 20:40 | 29.65362 | -82.12822 | 23418 ft | 414 kts | 178° |
| 2026-05-07 20:40 | 29.62528 | -82.12259 | 22885 ft | 412 kts | 178° |
| 2026-05-07 20:40 | 29.59712 | -82.11700 | 22392 ft | 409 kts | 178° |
| 2026-05-07 20:40 | 29.56954 | -82.11156 | 21900 ft | 405 kts | 178° |
| 2026-05-07 20:41 | 29.54175 | -82.10604 | 21439 ft | 402 kts | 177° |
| 2026-05-07 20:41 | 29.51431 | -82.10058 | 20982 ft | 399 kts | 177° |
| 2026-05-07 20:41 | 29.48706 | -82.09518 | 20532 ft | 396 kts | 177° |
| 2026-05-07 20:41 | 29.45998 | -82.08982 | 20088 ft | 393 kts | 177° |
| 2026-05-07 20:42 | 29.43317 | -82.08452 | 19654 ft | 390 kts | 177° |
| 2026-05-07 20:42 | 29.40675 | -82.07931 | 19226 ft | 388 kts | 177° |
| 2026-05-07 20:42 | 29.38015 | -82.07406 | 18756 ft | 387 kts | 177° |
| 2026-05-07 20:42 | 29.35364 | -82.06884 | 18292 ft | 386 kts | 177° |
| 2026-05-07 20:43 | 29.32714 | -82.06362 | 17774 ft | 385 kts | 177° |
| 2026-05-07 20:43 | 29.30104 | -82.05666 | 17271 ft | 390 kts | 162° |
| 2026-05-07 20:43 | 29.27700 | -82.04190 | 16903 ft | 390 kts | 155° |
| 2026-05-07 20:43 | 29.25352 | -82.02650 | 16431 ft | 388 kts | 155° |
| 2026-05-07 20:44 | 29.23015 | -82.01140 | 15995 ft | 384 kts | 156° |
| 2026-05-07 20:44 | 29.20685 | -81.99655 | 15550 ft | 382 kts | 156° |
| 2026-05-07 20:44 | 29.18368 | -81.98191 | 15109 ft | 379 kts | 156° |
| 2026-05-07 20:44 | 29.16063 | -81.96741 | 14656 ft | 377 kts | 156° |
| 2026-05-07 20:45 | 29.13793 | -81.95316 | 14225 ft | 375 kts | 156° |
| 2026-05-07 20:45 | 29.11512 | -81.93884 | 13766 ft | 373 kts | 156° |
| 2026-05-07 20:45 | 29.09241 | -81.92459 | 13292 ft | 371 kts | 156° |
| 2026-05-07 20:45 | 29.06993 | -81.91023 | 12834 ft | 370 kts | 152° |
| 2026-05-07 20:46 | 29.04994 | -81.89159 | 12408 ft | 372 kts | 139° |
| 2026-05-07 20:46 | 29.03172 | -81.87077 | 11985 ft | 369 kts | 139° |
| 2026-05-07 20:46 | 29.01339 | -81.85032 | 11558 ft | 366 kts | 140° |
| 2026-05-07 20:46 | 28.99495 | -81.83031 | 11151 ft | 363 kts | 140° |
| 2026-05-07 20:47 | 28.97702 | -81.81060 | 10940 ft | 354 kts | 136° |
| 2026-05-07 20:47 | 28.96152 | -81.78927 | 10622 ft | 352 kts | 130° |
| 2026-05-07 20:47 | 28.94693 | -81.76675 | 10251 ft | 350 kts | 129° |
| 2026-05-07 20:47 | 28.93272 | -81.74450 | 10015 ft | 343 kts | 129° |
| 2026-05-07 20:48 | 28.91868 | -81.72297 | 9956 ft | 330 kts | 130° |
| 2026-05-07 20:48 | 28.90504 | -81.70250 | 9932 ft | 317 kts | 130° |
| 2026-05-07 20:48 | 28.89183 | -81.68289 | 9862 ft | 306 kts | 131° |
| 2026-05-07 20:48 | 28.87902 | -81.66392 | 9711 ft | 299 kts | 131° |
| 2026-05-07 20:49 | 28.86645 | -81.64536 | 9424 ft | 297 kts | 131° |
| 2026-05-07 20:49 | 28.85384 | -81.62674 | 9117 ft | 296 kts | 131° |
| 2026-05-07 20:49 | 28.84125 | -81.60814 | 8831 ft | 295 kts | 130° |
| 2026-05-07 20:49 | 28.82876 | -81.58968 | 8581 ft | 293 kts | 130° |
| 2026-05-07 20:50 | 28.81632 | -81.57129 | 8312 ft | 292 kts | 130° |
| 2026-05-07 20:50 | 28.80392 | -81.55297 | 8057 ft | 290 kts | 130° |
| 2026-05-07 20:50 | 28.79173 | -81.53494 | 7898 ft | 284 kts | 129° |
| 2026-05-07 20:50 | 28.78069 | -81.51650 | 7740 ft | 279 kts | 124° |
| 2026-05-07 20:51 | 28.77034 | -81.49780 | 7479 ft | 278 kts | 124° |
| 2026-05-07 20:51 | 28.76007 | -81.47927 | 7283 ft | 274 kts | 124° |
| 2026-05-07 20:51 | 28.74987 | -81.46104 | 7115 ft | 270 kts | 124° |
| 2026-05-07 20:51 | 28.74005 | -81.44359 | 7063 ft | 260 kts | 124° |
| 2026-05-07 20:52 | 28.73218 | -81.42536 | 6918 ft | 255 kts | 108° |
| 2026-05-07 20:52 | 28.72687 | -81.40643 | 6725 ft | 247 kts | 109° |
| 2026-05-07 20:52 | 28.72132 | -81.38769 | 6328 ft | 249 kts | 109° |
| 2026-05-07 20:52 | 28.71562 | -81.36894 | 5803 ft | 254 kts | 110° |
| 2026-05-07 20:53 | 28.70934 | -81.34984 | 5167 ft | 262 kts | 120° |
| 2026-05-07 20:53 | 28.69689 | -81.33544 | 4723 ft | 251 kts | 158° |
| 2026-05-07 20:53 | 28.68613 | -81.33191 | 4525 ft | 239 kts | 176° |
| 2026-05-07 20:53 | 28.66983 | -81.33005 | 4217 ft | 232 kts | 180° |
| 2026-05-07 20:54 | 28.65388 | -81.32924 | 3933 ft | 226 kts | 182° |
| 2026-05-07 20:54 | 28.63824 | -81.32898 | 3648 ft | 224 kts | 182° |
| 2026-05-07 20:54 | 28.61773 | -81.32879 | 3267 ft | 222 kts | 182° |
| 2026-05-07 20:54 | 28.60734 | -81.32869 | 3091 ft | 221 kts | 184° |
| 2026-05-07 20:55 | 28.59207 | -81.32853 | 2800 ft | 216 kts | 183° |
| 2026-05-07 20:55 | 28.57722 | -81.32836 | 2538 ft | 210 kts | 182° |
| 2026-05-07 20:55 | 28.56298 | -81.32820 | 2251 ft | 202 kts | 184° |
| 2026-05-07 20:55 | 28.54932 | -81.32804 | 2008 ft | 190 kts | 184° |
| 2026-05-07 20:56 | 28.53653 | -81.32790 | 1788 ft | 179 kts | 185° |
| 2026-05-07 20:56 | 28.52397 | -81.32779 | 1562 ft | 180 kts | 183° |
| 2026-05-07 20:56 | 28.51162 | -81.32766 | 1316 ft | 177 kts | 185° |
| 2026-05-07 20:56 | 28.49948 | -81.32752 | 1114 ft | 171 kts | 185° |
| 2026-05-07 20:57 | 28.48765 | -81.32739 | 884 ft | 171 kts | 185° |
| 2026-05-07 20:57 | 28.47606 | -81.32726 | 657 ft | 161 kts | 182° |
| 2026-05-07 20:57 | 28.46528 | -81.32716 | 470 ft | 150 kts | 183° |
| 2026-05-07 20:57 | 28.45497 | -81.32702 | 271 ft | 146 kts | 182° |
| 2026-05-07 20:58 | 28.44492 | -81.32689 | 108 ft | 139 kts | 181° |
| 2026-05-07 20:58 | 28.43644 | -81.32685 | 104 ft | 101 kts | 179° |
| 2026-05-07 20:58 | 28.43081 | -81.32679 | 106 ft | 69 kts | 179° |
| 2026-05-07 20:58 | 28.42739 | -81.32667 | 103 ft | 32 kts | 165° |
| 2026-05-07 20:59 | 28.42577 | -81.32526 | 104 ft | 27 kts | 120° |
| 2026-05-07 20:59 | 28.42486 | -81.32347 | 106 ft | 25 kts | 120° |
| 2026-05-07 20:59 | 28.42407 | -81.32191 | 110 ft | 22 kts | 120° |
| 2026-05-07 20:59 | 28.42324 | -81.32045 | 108 ft | 22 kts | 125° |
| 2026-05-07 21:00 | 28.42264 | -81.31900 | 108 ft | 20 kts | 89° |
| 2026-05-07 21:00 | 28.42266 | -81.31741 | 104 ft | 21 kts | 89° |
| 2026-05-07 21:00 | 28.42265 | -81.31574 | 101 ft | 20 kts | 85° |
| 2026-05-07 21:00 | 28.42268 | -81.31405 | 100 ft | 23 kts | 89° |
| 2026-05-07 21:01 | 28.42262 | -81.31215 | 99 ft | 25 kts | 102° |
| 2026-05-07 21:01 | 28.42236 | -81.31011 | 100 ft | 26 kts | 94° |
| 2026-05-07 21:01 | 28.42246 | -81.30814 | 102 ft | 25 kts | 83° |
| 2026-05-07 21:01 | 28.42257 | -81.30620 | 102 ft | 25 kts | 86° |
| 2026-05-07 21:02 | 28.42273 | -81.30415 | 100 ft | 27 kts | 85° |
| 2026-05-07 21:02 | 28.42277 | -81.30206 | 101 ft | 26 kts | 90° |
| 2026-05-07 21:02 | 28.42279 | -81.30012 | 103 ft | 24 kts | 89° |
| 2026-05-07 21:02 | 28.42283 | -81.29830 | 102 ft | 17 kts | 80° |
| 2026-05-07 21:03 | 28.42394 | -81.29793 | 101 ft | 19 kts | 359° |
| 2026-05-07 21:03 | 28.42532 | -81.29795 | 102 ft | 20 kts | 359° |
| 2026-05-07 21:03 | 28.42678 | -81.29797 | 102 ft | 22 kts | 360° |
| 2026-05-07 21:03 | 28.42827 | -81.29798 | 102 ft | 22 kts | 0° |
| 2026-05-07 21:04 | 28.42983 | -81.29800 | 102 ft | 23 kts | 359° |
| 2026-05-07 21:04 | 28.43146 | -81.29802 | 102 ft | 23 kts | 0° |
| 2026-05-07 21:04 | 28.43305 | -81.29804 | 102 ft | 23 kts | 0° |
| 2026-05-07 21:04 | 28.43460 | -81.29801 | 103 ft | 22 kts | 359° |
| 2026-05-07 21:05 | 28.43618 | -81.29806 | 103 ft | 24 kts | 0° |
| 2026-05-07 21:05 | 28.43785 | -81.29836 | 102 ft | 25 kts | 334° |
| 2026-05-07 21:05 | 28.43888 | -81.29977 | 103 ft | 23 kts | 291° |
| 2026-05-07 21:05 | 28.43890 | -81.30146 | 101 ft | 20 kts | 226° |
| 2026-05-07 21:06 | 28.43756 | -81.30218 | 100 ft | 22 kts | 217° |
| 2026-05-07 21:06 | 28.43661 | -81.30351 | 99 ft | 21 kts | 232° |
| 2026-05-07 21:06 | 28.43550 | -81.30452 | 100 ft | 21 kts | 190° |
| 2026-05-07 21:06 | 28.43439 | -81.30375 | 100 ft | 20 kts | 117° |
| 2026-05-07 21:07 | 28.43453 | -81.30259 | 100 ft | 13 kts | 44° |
| 2026-05-07 21:07 | 28.43485 | -81.30235 | 100 ft | 0 kts | 31° |